Time;durP1;ratioP1;P1;durP2;ratioP2;P2;SDS_P1;SDS_P2;PMS_P1;PMS_P2;Temp;Humidity;BMP_temperature;BMP_pressure;BME280_temperature;BME280_humidity;BME280_pressure;Samples;Min_cycle;Max_cycle;Signal;HPM_P1;HPM_P2
2022/10/31 00:00:09;;;;;;;20.57;14.37;;;;;;;14.69;100.00;-11765.38;5075571;28;20484;-56
2022/10/31 00:02:36;;;;;;;15.57;12.77;;;;;;;14.86;100.00;-11447.09;5075558;28;20652;-57
2022/10/31 00:05:03;;;;;;;20.30;13.43;;;;;;;14.88;100.00;-10806.06;5075500;28;20647;-59
2022/10/31 00:07:30;;;;;;;17.33;14.07;;;;;;;14.83;100.00;-11767.22;5075189;28;20188;-56
2022/10/31 00:09:58;;;;;;;21.60;13.97;;;;;;;14.96;100.00;-12089.69;5075177;28;20250;-57
2022/10/31 00:12:25;;;;;;;15.03;13.50;;;;;;;14.85;100.00;-11446.97;5074805;28;20200;-57
2022/10/31 00:14:52;;;;;;;14.43;13.03;;;;;;;15.11;100.00;-10487.94;5074940;28;20249;-56
2022/10/31 00:17:19;;;;;;;15.07;13.57;;;;;;;15.20;100.00;-8563.22;5074819;28;20185;-56
2022/10/31 00:19:47;;;;;;;14.30;12.80;;;;;;;15.29;100.00;-7600.50;5075162;28;20196;-57
2022/10/31 00:22:14;;;;;;;17.53;12.07;;;;;;;15.20;100.00;-6957.50;5074945;28;20197;-56
2022/10/31 00:24:41;;;;;;;15.90;13.03;;;;;;;15.32;100.00;-5994.19;5074943;28;20311;-56
2022/10/31 00:27:09;;;;;;;14.53;12.53;;;;;;;15.37;100.00;-5351.53;5074842;28;20196;-56
2022/10/31 00:29:36;;;;;;;12.63;11.63;;;;;;;15.33;100.00;-4386.91;5074976;28;20498;-55
2022/10/31 00:32:03;;;;;;;13.03;12.37;;;;;;;15.30;100.00;-3743.75;5074546;28;20695;-57
2022/10/31 00:34:30;;;;;;;13.07;11.97;;;;;;;15.35;100.00;-4065.38;5074536;28;20195;-57
2022/10/31 00:36:57;;;;;;;12.77;11.60;;;;;;;15.43;100.00;-4708.66;5074519;28;20193;-57
2022/10/31 00:39:23;;;;;;;12.53;11.63;;;;;;;15.34;100.00;-4386.94;5074740;28;20258;-56
2022/10/31 00:41:50;;;;;;;15.57;11.93;;;;;;;15.17;100.00;-5350.88;5074349;28;20192;-56
2022/10/31 00:44:19;;;;;;;14.87;11.93;;;;;;;15.31;100.00;-5351.34;5074313;28;20195;-56
2022/10/31 00:46:46;;;;;;;12.73;11.60;;;;;;;15.04;100.00;-5350.44;5074933;28;20196;-56
2022/10/31 00:49:12;;;;;;;12.87;11.27;;;;;;;14.90;100.00;-7918.81;5074615;28;20185;-55
2022/10/31 00:51:39;;;;;;;12.20;11.10;;;;;;;14.95;100.00;-10486.13;5074516;28;20193;-57
2022/10/31 00:54:06;;;;;;;13.77;12.67;;;;;;;15.08;100.00;-9845.94;5074074;28;20190;-56
2022/10/31 00:56:33;;;;;;;13.80;12.50;;;;;;;15.23;100.00;-9526.50;5074312;28;20575;-56
2022/10/31 00:59:00;;;;;;;12.83;11.60;;;;;;;15.31;100.00;-8885.19;5074226;28;20624;-57
2022/10/31 01:01:28;;;;;;;13.37;12.00;;;;;;;15.32;100.00;-7600.66;5074412;28;20199;-56
2022/10/31 01:03:56;;;;;;;15.77;12.17;;;;;;;15.33;100.00;-7279.50;5074247;28;20185;-56
2022/10/31 01:06:22;;;;;;;15.37;11.13;;;;;;;15.19;100.00;-6636.16;5073459;28;20181;-56
2022/10/31 01:08:49;;;;;;;11.67;10.70;;;;;;;15.14;100.00;-6957.09;5073958;28;20215;-56
2022/10/31 01:11:18;;;;;;;13.23;12.23;;;;;;;15.26;100.00;-7279.09;5074227;28;20551;-56
2022/10/31 01:13:45;;;;;;;13.00;11.87;;;;;;;15.33;100.00;-7279.53;5073580;28;20199;-56
2022/10/31 01:16:14;;;;;;;13.17;11.57;;;;;;;15.15;100.00;-7920.66;5073960;28;20205;-57
2022/10/31 01:18:42;;;;;;;14.20;12.13;;;;;;;15.21;100.00;-8242.16;5073685;28;20276;-56
2022/10/31 01:21:11;;;;;;;14.03;12.17;;;;;;;15.19;100.00;-8563.09;5073968;28;20181;-56
2022/10/31 01:23:39;;;;;;;13.47;12.20;;;;;;;15.27;100.00;-8884.88;5073704;28;20189;-56
2022/10/31 01:26:09;;;;;;;12.10;11.17;;;;;;;15.18;100.00;-7920.88;5073622;28;20185;-57
2022/10/31 01:28:36;;;;;;;13.93;11.90;;;;;;;15.19;100.00;-8242.03;5073544;28;20267;-56
2022/10/31 01:31:06;;;;;;;13.67;12.70;;;;;;;15.19;100.00;-8242.00;5073485;28;20715;-56
2022/10/31 01:33:33;;;;;;;13.70;12.33;;;;;;;15.36;100.00;-8243.38;5073640;28;20631;-56
2022/10/31 01:36:01;;;;;;;15.27;13.20;;;;;;;15.31;100.00;-7279.38;5073692;28;20671;-56
2022/10/31 01:38:28;;;;;;;13.40;12.20;;;;;;;15.25;100.00;-5672.50;5073762;28;20251;-56
2022/10/31 01:40:55;;;;;;;14.93;12.00;;;;;;;15.15;100.00;-7920.59;5056213;28;20564;-56
2022/10/31 01:43:22;;;;;;;16.53;14.17;;;;;;;15.33;100.00;-7600.78;5073850;28;20655;-55
2022/10/31 01:45:54;;;;;;;14.20;12.77;;;;;;;15.41;100.00;-7601.28;5073826;28;20189;-56
2022/10/31 01:48:31;;;;;;;21.00;13.50;;;;;;;15.40;100.00;-6315.94;5073442;28;20212;-56
2022/10/31 01:50:58;;;;;;;14.13;13.13;;;;;;;15.47;100.00;-5351.84;5073484;28;20503;-56
2022/10/31 01:53:26;;;;;;;14.30;12.97;;;;;;;15.43;100.00;-5030.22;5073041;28;20180;-56
2022/10/31 01:55:53;;;;;;;14.13;13.00;;;;;;;15.53;100.00;-4708.88;5073249;28;20209;-56
2022/10/31 01:58:26;;;;;;;14.73;13.37;;;;;;;15.45;100.00;-5351.78;5072980;28;20189;-57
2022/10/31 02:00:56;;;;;;;15.47;13.23;;;;;;;15.40;100.00;-6637.31;5073391;28;20714;-56
2022/10/31 02:03:24;;;;;;;14.43;13.03;;;;;;;15.41;100.00;-6637.34;5072706;28;20273;-56
2022/10/31 02:05:54;;;;;;;19.03;14.90;;;;;;;15.29;100.00;-7600.50;5073137;28;20195;-56
2022/10/31 02:08:26;;;;;;;21.67;14.13;;;;;;;15.29;100.00;-7921.66;5072711;28;20185;-56
2022/10/31 02:10:55;;;;;;;15.63;14.23;;;;;;;15.41;100.00;-7601.31;5072714;28;20189;-55
2022/10/31 02:13:23;;;;;;;17.47;15.57;;;;;;;15.47;100.00;-6316.28;5072713;28;20189;-56
2022/10/31 02:15:54;;;;;;;19.70;16.93;;;;;;;15.46;100.00;-5351.81;5072657;28;20200;-56
2022/10/31 02:18:21;;;;;;;25.53;16.00;;;;;;;15.40;100.00;-3743.81;5072121;28;20185;-58
2022/10/31 02:21:00;;;;;;;18.83;15.40;;;;;;;15.45;100.00;-4387.13;5072688;28;20567;-57
2022/10/31 02:24:01;;;;;;;24.73;15.80;;;;;;;15.58;100.00;-4065.66;5072493;28;20191;-56
2022/10/31 02:26:46;;;;;;;23.37;16.17;;;;;;;15.18;100.00;-3100.56;5072553;28;20187;-56
2022/10/31 02:29:35;;;;;;;22.00;15.13;;;;;;;15.53;100.00;-1491.16;5072671;28;20203;-56
2022/10/31 02:32:09;;;;;;;19.67;17.07;;;;;;;15.63;100.00;-846.84;5072217;28;20233;-56
2022/10/31 02:34:43;;;;;;;30.17;17.77;;;;;;;15.68;100.00;441.91;5072290;28;20275;-56
2022/10/31 02:37:15;;;;;;;22.77;16.53;;;;;;;15.63;100.00;1408.25;5072320;28;20204;-55
2022/10/31 02:39:53;;;;;;;21.27;17.40;;;;;;;15.44;100.00;2373.44;5072660;28;20659;-57
2022/10/31 02:42:30;;;;;;;31.77;17.00;;;;;;;15.34;100.00;-204.16;5072008;28;20220;-56
2022/10/31 02:45:07;;;;;;;31.20;17.87;;;;;;;15.19;100.00;-5029.53;5072556;28;20188;-57
2022/10/31 02:47:38;;;;;;;20.93;17.10;;;;;;;15.20;100.00;-7599.88;5072392;28;20188;-57
2022/10/31 02:50:10;;;;;;;25.80;17.57;;;;;;;15.08;100.00;-8241.22;5064034;28;20587;-56
2022/10/31 02:52:37;;;;;;;24.60;19.37;;;;;;;15.30;100.00;-6315.44;5072312;28;20636;-56
2022/10/31 02:55:13;;;;;;;21.80;17.03;;;;;;;15.26;100.00;-8242.59;5072145;28;20185;-57
2022/10/31 02:57:43;;;;;;;32.50;17.03;;;;;;;15.18;100.00;-11130.47;5072238;28;20180;-56
2022/10/31 03:00:11;;;;;;;19.53;17.53;;;;;;;15.33;100.00;-10490.53;5072050;28;20191;-56
2022/10/31 03:03:01;;;;;;;31.33;18.70;;;;;;;15.27;100.00;-11452.38;5072073;28;20181;-56
2022/10/31 03:05:41;;;;;;;25.33;17.50;;;;;;;15.34;100.00;-12736.50;5072149;28;20181;-56
2022/10/31 03:08:16;;;;;;;21.60;18.87;;;;;;;15.47;100.00;-12417.59;5071823;28;20180;-56
2022/10/31 03:10:49;;;;;;;23.53;17.67;;;;;;;15.50;100.00;-12738.88;5071864;28;20181;-55
2022/10/31 03:13:24;;;;;;;27.13;19.27;;;;;;;15.57;100.00;-12098.19;5072038;28;20279;-56
2022/10/31 03:15:54;;;;;;;19.87;17.73;;;;;;;15.30;100.00;-11773.56;5071753;28;20210;-57
2022/10/31 03:18:29;;;;;;;28.33;19.00;;;;;;;15.11;100.00;-12412.31;5072041;28;20541;-57
2022/10/31 03:21:02;;;;;;;23.13;17.97;;;;;;;15.20;100.00;-12734.31;5071946;28;20661;-55
2022/10/31 03:23:31;;;;;;;24.73;17.47;;;;;;;15.02;100.00;-13693.25;5072047;28;20743;-56
2022/10/31 03:26:02;;;;;;;22.63;18.53;;;;;;;14.96;100.00;-13371.81;5071632;28;20195;-57
2022/10/31 03:28:37;;;;;;;19.63;17.63;;;;;;;15.00;100.00;-13692.94;5071384;28;20191;-56
2022/10/31 03:31:05;;;;;;;22.37;18.43;;;;;;;14.95;100.00;-14332.88;5063334;28;20238;-56
2022/10/31 03:33:37;;;;;;;22.47;18.77;;;;;;;14.82;100.00;-14650.84;5071408;28;20181;-56
2022/10/31 03:36:06;;;;;;;21.23;18.13;;;;;;;14.78;100.00;-15610.63;5071331;28;20230;-57
2022/10/31 03:38:37;;;;;;;22.53;17.43;;;;;;;14.69;100.00;-14008.00;5071507;28;20184;-56
2022/10/31 03:41:06;;;;;;;25.60;18.67;;;;;;;14.57;100.00;-13365.47;5071509;28;20181;-56
2022/10/31 03:43:41;;;;;;;21.27;17.03;;;;;;;14.08;100.00;-17515.22;5071589;28;20579;-56
2022/10/31 03:46:08;;;;;;;18.67;16.97;;;;;;;13.94;100.00;-18152.88;5071549;28;20203;-56
2022/10/31 03:48:37;;;;;;;30.37;17.83;;;;;;;13.96;100.00;-18153.25;5071343;28;20200;-56
2022/10/31 03:51:11;;;;;;;24.63;18.03;;;;;;;13.96;100.00;-18153.34;5053684;28;20195;-57
2022/10/31 03:53:45;;;;;;;18.60;16.13;;;;;;;13.87;100.00;-18151.06;5071645;28;20200;-56
2022/10/31 03:56:19;;;;;;;21.47;17.43;;;;;;;13.90;100.00;-18151.91;5071172;28;20208;-56
2022/10/31 03:58:54;;;;;;;19.37;17.27;;;;;;;14.30;100.00;-18161.28;5071303;28;20195;-56
2022/10/31 04:01:23;;;;;;;20.13;16.67;;;;;;;14.22;100.00;-18159.38;5071341;28;20655;-57
2022/10/31 04:03:51;;;;;;;22.40;18.07;;;;;;;14.45;100.00;-18164.91;5071532;28;20199;-58
2022/10/31 04:06:21;;;;;;;28.27;19.63;;;;;;;14.61;100.00;-18166.88;5071198;28;20177;-56
2022/10/31 04:08:52;;;;;;;25.23;17.67;;;;;;;14.44;100.00;-16883.63;5071422;28;20196;-57
2022/10/31 04:11:22;;;;;;;27.73;19.80;;;;;;;14.69;100.00;-15288.81;5071588;28;20586;-56
2022/10/31 04:13:50;;;;;;;18.67;16.10;;;;;;;14.86;100.00;-13690.56;5071241;28;20196;-56
2022/10/31 04:16:18;;;;;;;22.90;18.20;;;;;;;14.82;100.00;-12087.69;5071236;28;20664;-56
2022/10/31 04:18:45;;;;;;;34.60;24.63;;;;;;;15.08;100.00;-11450.00;5071457;28;20687;-56
2022/10/31 04:21:13;;;;;;;33.67;25.37;;;;;;;15.22;100.00;-8884.41;5070969;28;20211;-56
2022/10/31 04:23:40;;;;;;;26.83;19.20;;;;;;;15.23;100.00;-7921.25;5071033;28;20201;-56
2022/10/31 04:26:09;;;;;;;33.33;19.50;;;;;;;15.31;100.00;-7279.38;5071282;28;20191;-56
2022/10/31 04:28:36;;;;;;;33.87;20.17;;;;;;;15.31;100.00;-7921.84;5071266;28;20189;-57
2022/10/31 04:31:03;;;;;;;23.23;19.73;;;;;;;15.25;100.00;-7279.00;5070838;28;20232;-55
2022/10/31 04:33:30;;;;;;;35.27;22.10;;;;;;;15.42;100.00;-6637.44;5070922;28;20185;-57
2022/10/31 04:35:56;;;;;;;34.87;24.40;;;;;;;15.27;100.00;-6315.28;5070955;28;20195;-55
2022/10/31 04:38:25;;;;;;;41.47;26.90;;;;;;;15.30;100.00;-7279.31;5071024;28;20191;-56
2022/10/31 04:40:52;;;;;;;64.27;32.80;;;;;;;15.37;100.00;-6958.47;5072686;28;20224;-56
2022/10/31 04:43:19;;;;;;;65.07;38.37;;;;;;;15.40;100.00;-5351.63;5074475;28;20647;-56
2022/10/31 04:45:46;;;;;;;72.40;38.43;;;;;;;15.48;100.00;-1169.38;5074330;28;20189;-56
2022/10/31 04:48:13;;;;;;;59.40;35.80;;;;;;;15.53;100.00;1729.72;5074526;28;20185;-55
2022/10/31 04:50:40;;;;;;;65.57;37.03;;;;;;;15.52;100.00;4308.63;5074552;28;20601;-56
2022/10/31 04:53:06;;;;;;;68.23;38.53;;;;;;;15.50;100.00;9795.13;5074286;28;20191;-56
2022/10/31 04:55:36;;;;;;;65.93;40.10;;;;;;;15.51;100.00;17233.47;5074122;28;20536;-57
2022/10/31 04:58:03;;;;;;;70.10;39.70;;;;;;;15.58;100.00;21123.22;5074070;28;20296;-57
2022/10/31 05:00:30;;;;;;;75.33;41.93;;;;;;;15.64;100.00;28265.66;5074079;28;20185;-57
2022/10/31 05:02:59;;;;;;;75.23;41.00;;;;;;;15.68;100.00;31844.00;5074460;28;20184;-57
2022/10/31 05:05:27;;;;;;;70.07;40.13;;;;;;;15.59;100.00;36069.06;5074542;28;20622;-55
2022/10/31 05:07:55;;;;;;;81.60;40.23;;;;;;;15.73;100.00;35101.41;5056671;28;20568;-55
2022/10/31 05:10:24;;;;;;;80.43;39.80;;;;;;;15.62;100.00;36071.31;5074203;28;20189;-57
2022/10/31 05:12:53;;;;;;;78.47;41.17;;;;;;;15.85;100.00;32178.81;5074107;28;20184;-56
2022/10/31 05:15:21;;;;;;;91.27;41.03;;;;;;;15.92;100.00;26005.75;5073770;28;20189;-56
2022/10/31 05:17:49;;;;;;;83.50;40.40;;;;;;;15.93;100.00;29906.47;5056002;28;20208;-56
2022/10/31 05:20:18;;;;;;;72.53;39.00;;;;;;;15.75;100.00;36405.38;5074315;28;20185;-55
2022/10/31 05:22:45;;;;;;;62.53;37.97;;;;;;;15.39;100.00;38336.31;5074024;28;20654;-56
2022/10/31 05:25:12;;;;;;;60.80;38.17;;;;;;;15.50;100.00;38995.13;5073600;28;20222;-56
2022/10/31 05:27:40;;;;;;;71.27;36.60;;;;;;;15.59;100.00;38675.44;5073646;28;20200;-57
2022/10/31 05:30:11;;;;;;;66.40;38.43;;;;;;;15.85;100.00;40976.19;5073740;28;20240;-56
2022/10/31 05:32:39;;;;;;;78.60;37.87;;;;;;;15.69;100.00;53381.56;5073455;28;20187;-56
2022/10/31 05:35:09;;;;;;;80.57;40.23;;;;;;;16.00;100.00;48173.84;5073780;28;20177;-57
2022/10/31 05:37:36;;;;;;;70.43;37.30;;;;;;;15.74;100.00;44231.69;5073569;28;20205;-56
2022/10/31 05:40:03;;;;;;;61.60;35.20;;;;;;;15.95;100.00;42288.84;5073419;28;20193;-56
2022/10/31 05:42:30;;;;;;;64.93;34.20;;;;;;;16.13;100.00;45568.66;5073606;28;20655;-57
2022/10/31 05:44:56;;;;;;;56.83;34.73;;;;;;;16.37;100.00;54099.16;5073731;28;20632;-56
2022/10/31 05:47:26;;;;;;;55.27;32.90;;;;;;;16.70;100.00;54458.09;5073788;28;20209;-57
2022/10/31 05:49:52;;;;;;;59.33;32.60;;;;;;;17.28;100.00;73937.84;5073446;28;20683;-56
2022/10/31 05:52:21;;;;;;;59.73;31.80;;;;;;;17.65;100.00;115530.81;5073275;28;20631;-57
2022/10/31 05:54:47;;;;;;;57.37;28.90;;;;;;;17.97;100.00;150553.22;5072982;28;20195;-57
2022/10/31 05:57:14;;;;;;;70.77;34.33;;;;;;;18.03;100.00;150569.78;5072991;28;20204;-57
2022/10/31 05:59:41;;;;;;;76.10;33.67;;;;;;;17.85;100.00;147676.44;5073287;28;20548;-57
2022/10/31 06:02:08;;;;;;;59.10;31.40;;;;;;;17.87;100.00;150529.06;5073284;28;20210;-56
2022/10/31 06:04:36;;;;;;;74.97;31.73;;;;;;;17.77;100.00;150504.97;5073132;28;20186;-56
2022/10/31 06:07:03;;;;;;;54.13;29.73;;;;;;;17.60;100.00;150461.75;5054884;28;20211;-56
2022/10/31 06:09:31;;;;;;;57.63;27.97;;;;;;;17.54;100.00;150446.41;5072549;28;20185;-57
2022/10/31 06:11:57;;;;;;;60.07;30.87;;;;;;;17.59;100.00;141783.31;5072682;28;20203;-55
2022/10/31 06:14:24;;;;;;;61.13;30.23;;;;;;;17.58;100.00;138661.44;5072987;28;20267;-56
2022/10/31 06:16:51;;;;;;;74.90;31.40;;;;;;;17.64;100.00;136991.97;5072710;28;20616;-56
2022/10/31 06:19:18;;;;;;;64.73;28.10;;;;;;;17.74;100.00;138697.75;5054896;28;20199;-59
2022/10/31 06:21:46;;;;;;;77.77;29.43;;;;;;;17.80;100.00;150511.28;5072424;28;20189;-57
2022/10/31 06:24:14;;;;;;;72.67;26.83;;;;;;;17.96;100.00;150551.97;5072431;28;20200;-56
2022/10/31 06:26:41;;;;;;;57.23;25.37;;;;;;;18.05;100.00;150574.84;5072586;28;20215;-57
2022/10/31 06:29:08;;;;;;;60.30;27.70;;;;;;;18.21;100.00;150614.25;5072759;28;20184;-57
2022/10/31 06:31:35;;;;;;;78.67;26.80;;;;;;;18.34;100.00;150646.03;5072043;28;20232;-58
2022/10/31 06:34:02;;;;;;;95.27;27.60;;;;;;;18.55;100.00;150699.50;5072595;28;20575;-57
2022/10/31 06:36:29;;;;;;;86.10;27.00;;;;;;;18.94;100.00;150797.44;5072301;28;20558;-57
2022/10/31 06:38:57;;;;;;;53.57;23.00;;;;;;;19.27;100.00;150881.41;5072199;28;20276;-58
2022/10/31 06:41:24;;;;;;;46.87;20.60;;;;;;;19.89;100.00;151036.75;5072029;28;20193;-57
2022/10/31 06:43:51;;;;;;;37.77;19.83;;;;;;;20.56;100.00;151204.84;5072141;28;20275;-62
2022/10/31 06:46:18;;;;;;;39.27;19.00;;;;;;;20.91;100.00;151294.03;5072167;28;20196;-60
2022/10/31 06:48:45;;;;;;;27.67;19.00;;;;;;;21.09;100.00;151338.63;5072311;28;20187;-60
2022/10/31 06:51:12;;;;;;;36.33;26.63;;;;;;;21.23;100.00;151375.59;5072420;28;20185;-59
2022/10/31 06:53:39;;;;;;;27.13;18.17;;;;;;;21.41;100.00;151421.50;5071985;28;20188;-56
2022/10/31 06:56:08;;;;;;;25.70;17.05;;;;;;;21.48;100.00;151438.03;5071984;28;20189;-56
2022/10/31 06:58:35;;;;;;;37.97;23.53;;;;;;;21.35;100.00;151404.91;5071626;28;20263;-58
2022/10/31 07:01:02;;;;;;;46.20;28.77;;;;;;;21.17;100.00;151360.34;5054123;28;20216;-58
2022/10/31 07:03:29;;;;;;;43.23;25.87;;;;;;;20.84;100.00;151277.44;5071082;28;20207;-60
2022/10/31 07:05:56;;;;;;;42.73;23.47;;;;;;;20.89;100.00;151288.91;5071251;28;20197;-59
2022/10/31 07:08:24;;;;;;;46.63;30.23;;;;;;;20.49;100.00;151189.59;5071925;28;20591;-58
2022/10/31 07:10:53;;;;;;;40.77;27.53;;;;;;;20.27;100.00;151133.50;5071554;28;20181;-57
2022/10/31 07:13:25;;;;;;;41.60;27.33;;;;;;;20.27;100.00;151133.50;5071361;28;20188;-60
2022/10/31 07:15:53;;;;;;;39.40;26.27;;;;;;;20.54;100.00;151201.00;5071345;28;20180;-57
2022/10/31 07:18:21;;;;;;;47.60;25.67;;;;;;;20.54;100.00;151199.78;5053967;28;20567;-58
2022/10/31 07:20:48;;;;;;;41.00;23.13;;;;;;;20.55;100.00;151203.56;5071049;28;20189;-60
2022/10/31 07:23:15;;;;;;;31.27;22.17;;;;;;;20.47;100.00;151184.47;5071106;28;20195;-57
2022/10/31 07:25:42;;;;;;;28.77;19.73;;;;;;;20.47;100.00;151184.47;5071136;28;20228;-57
2022/10/31 07:28:09;;;;;;;24.17;17.27;;;;;;;20.45;100.00;151179.38;5071221;28;20184;-56
2022/10/31 07:30:37;;;;;;;23.03;16.50;;;;;;;20.51;100.00;151194.66;5071086;28;20232;-56
2022/10/31 07:33:05;;;;;;;21.40;17.73;;;;;;;20.51;100.00;151194.66;5071210;28;20184;-57
2022/10/31 07:35:32;;;;;;;30.47;16.33;;;;;;;20.90;100.00;151291.47;5071407;28;20185;-57
2022/10/31 07:38:07;;;;;;;19.83;16.03;;;;;;;20.90;100.00;151292.75;5071487;28;20216;-57
2022/10/31 07:40:34;;;;;;;22.70;15.47;;;;;;;21.07;100.00;151334.78;5071211;28;20188;-58
2022/10/31 07:43:01;;;;;;;22.23;14.57;;;;;;;21.32;100.00;151398.53;5071329;28;20206;-56
2022/10/31 07:45:30;;;;;;;36.83;17.33;;;;;;;21.41;100.00;151421.50;5071296;28;20224;-56
2022/10/31 07:47:58;;;;;;;33.13;16.77;;;;;;;21.59;100.00;151464.81;5071822;28;20227;-58
2022/10/31 07:50:27;;;;;;;31.40;16.13;;;;;;;22.39;100.00;151667.56;5071731;28;20566;-57
2022/10/31 07:53:01;;;;;;;32.88;16.27;;;;;;;23.08;100.00;151841.09;5071541;28;20267;-57
2022/10/31 07:55:28;;;;;;;25.48;14.48;;;;;;;24.10;100.00;152100.16;5070285;28;20617;-57
2022/10/31 07:58:00;;;;;;;18.02;13.73;;;;;;;25.45;100.00;152440.06;5069385;28;20207;-58
2022/10/31 08:00:27;;;;;;;23.42;13.82;;;;;;;26.52;100.00;152711.09;5071071;28;20659;-59
2022/10/31 08:03:00;;;;;;;22.52;13.98;;;;;;;27.50;100.00;152958.06;5071132;28;20199;-58
2022/10/31 08:05:27;;;;;;;16.88;13.13;;;;;;;27.07;100.00;152849.31;5071031;28;20189;-58
2022/10/31 08:07:54;;;;;;;14.60;13.20;;;;;;;27.00;100.00;152832.66;5071180;28;20652;-57
2022/10/31 08:10:22;;;;;;;14.10;12.77;;;;;;;26.86;100.00;152795.59;5070788;28;20191;-57
2022/10/31 08:12:56;;;;;;;17.80;13.27;;;;;;;27.49;100.00;152955.53;5070895;28;20194;-58
2022/10/31 08:15:23;;;;;;;20.05;13.00;;;;;;;28.26;95.14;153151.41;5071777;28;20298;-59
2022/10/31 08:17:49;;;;;;;22.02;13.95;;;;;;;28.86;92.28;153302.50;5074661;28;20215;-59
2022/10/31 08:20:18;;;;;;;24.55;13.00;;;;;;;30.01;83.79;153593.38;5074983;28;20627;-58
2022/10/31 08:22:54;;;;;;;17.42;13.52;;;;;;;29.61;79.92;153492.13;5074283;28;20196;-58
2022/10/31 08:25:21;;;;;;;17.85;13.48;;;;;;;29.88;80.74;153561.34;5072213;28;20654;-59
2022/10/31 08:27:50;;;;;;;20.23;13.32;;;;;;;29.64;83.02;153501.09;5074949;28;20181;-59
2022/10/31 08:30:17;;;;;;;27.63;14.15;;;;;;;29.25;85.66;153401.09;5057039;28;20224;-59
2022/10/31 08:32:44;;;;;;;14.27;13.00;;;;;;;28.75;88.58;153274.34;5074986;28;20188;-59
2022/10/31 08:35:11;;;;;;;17.77;13.27;;;;;;;28.55;91.21;153225.66;5075293;28;20195;-60
2022/10/31 08:37:39;;;;;;;18.42;13.18;;;;;;;28.75;91.52;153274.34;5074443;28;20207;-59
2022/10/31 08:40:07;;;;;;;13.95;12.57;;;;;;;28.93;89.60;153321.72;5074646;28;20279;-59
2022/10/31 08:42:34;;;;;;;14.60;13.05;;;;;;;29.47;87.87;153457.53;5057207;28;20200;-58
2022/10/31 08:45:01;;;;;;;13.57;12.35;;;;;;;29.88;83.80;153561.34;5075138;28;20660;-58
2022/10/31 08:47:29;;;;;;;15.52;13.57;;;;;;;30.35;79.34;153681.81;5074607;28;20196;-58
2022/10/31 08:49:56;;;;;;;19.55;12.70;;;;;;;30.50;79.98;153717.78;5074657;28;20212;-57
2022/10/31 08:52:25;;;;;;;14.93;13.45;;;;;;;31.15;75.18;153884.47;5074440;28;20185;-58
2022/10/31 08:54:53;;;;;;;13.45;12.20;;;;;;;31.74;73.87;154033.34;5074104;28;20185;-58
2022/10/31 08:57:20;;;;;;;13.93;12.77;;;;;;;32.26;68.75;154164.19;5074545;28;20181;-58
2022/10/31 08:59:47;;;;;;;16.02;12.85;;;;;;;32.75;67.02;154290.03;5074401;28;20193;-58
2022/10/31 09:02:14;;;;;;;17.48;13.45;;;;;;;33.06;65.35;154369.59;5073950;28;20191;-59
2022/10/31 09:04:41;;;;;;;19.20;12.65;;;;;;;33.02;62.49;154359.34;5074420;28;20195;-58
2022/10/31 09:07:08;;;;;;;17.13;11.88;;;;;;;32.51;64.33;154228.34;5074723;28;20211;-58
2022/10/31 09:09:35;;;;;;;17.15;11.95;;;;;;;32.51;65.16;154228.34;5056377;28;20211;-58
2022/10/31 09:12:04;;;;;;;19.25;13.18;;;;;;;33.32;61.23;154435.13;5073762;28;20189;-58
2022/10/31 09:14:30;;;;;;;21.27;12.25;;;;;;;32.21;63.25;154151.41;5073987;28;20193;-58
2022/10/31 09:16:57;;;;;;;21.23;12.90;;;;;;;31.88;65.22;154069.22;5073606;28;20181;-58
2022/10/31 09:19:24;;;;;;;15.50;12.25;;;;;;;31.60;66.39;153998.69;5066671;28;20223;-58
2022/10/31 09:21:54;;;;;;;13.15;11.82;;;;;;;31.22;68.00;153902.44;5054098;28;20571;-57
2022/10/31 09:24:24;;;;;;;13.52;12.43;;;;;;;30.65;70.76;153756.22;5053776;28;20231;-60
2022/10/31 09:26:51;;;;;;;20.08;17.88;;;;;;;30.24;73.21;153653.63;5053077;28;20264;-57
2022/10/31 09:29:20;;;;;;;20.38;17.30;;;;;;;29.66;76.83;153504.94;5053696;28;20185;-60
2022/10/31 09:31:46;;;;;;;14.35;12.98;;;;;;;29.35;78.77;153428.09;5070018;28;20239;-57
2022/10/31 09:34:13;;;;;;;13.30;12.07;;;;;;;29.22;80.39;153393.44;5073162;28;20209;-58
2022/10/31 09:36:40;;;;;;;13.82;12.45;;;;;;;29.66;78.45;153506.25;5073627;28;20207;-58
2022/10/31 09:39:08;;;;;;;16.05;12.13;;;;;;;29.32;78.00;153419.13;5073212;28;20244;-57
2022/10/31 09:41:52;;;;;;;12.93;11.90;;;;;;;28.62;81.54;153242.28;5073937;28;20191;-57
2022/10/31 09:44:27;;;;;;;18.75;12.43;;;;;;;28.80;84.31;153287.16;5069938;28;20189;-58
2022/10/31 09:47:03;;;;;;;15.23;12.05;;;;;;;29.37;80.49;153433.19;5073153;28;20211;-57
2022/10/31 09:49:42;;;;;;;14.73;11.02;;;;;;;29.74;77.05;153525.44;5072935;28;20268;-57
2022/10/31 09:52:17;;;;;;;13.40;12.02;;;;;;;29.82;75.46;153547.22;5073807;28;20279;-57
2022/10/31 09:54:48;;;;;;;12.85;11.20;;;;;;;30.54;71.58;153729.31;5072928;28;20177;-58
2022/10/31 09:57:18;;;;;;;13.98;10.27;;;;;;;30.84;68.91;153804.94;5073715;28;20248;-58
2022/10/31 09:59:50;;;;;;;12.20;10.48;;;;;;;31.09;68.50;153869.09;5072646;28;20582;-59
2022/10/31 10:02:27;;;;;;;19.42;10.43;;;;;;;31.44;66.90;153956.31;5071939;28;20195;-59
2022/10/31 10:04:58;;;;;;;12.38;11.13;;;;;;;32.03;63.34;154107.72;5070845;28;20520;-57
2022/10/31 10:07:39;;;;;;;12.25;10.02;;;;;;;32.33;61.06;154183.47;5073075;28;20547;-57
2022/10/31 10:10:16;;;;;;;11.82;10.63;;;;;;;32.78;59.50;154297.72;5073057;28;20196;-58
2022/10/31 10:12:57;;;;;;;14.27;10.40;;;;;;;33.25;57.84;154417.16;5072736;28;20191;-59
2022/10/31 10:15:38;;;;;;;10.23;9.52;;;;;;;32.67;57.89;154269.50;5072416;28;20580;-58
2022/10/31 10:18:16;;;;;;;14.40;9.52;;;;;;;32.46;57.62;154215.56;5072976;28;20651;-58
2022/10/31 10:20:56;;;;;;;10.30;9.27;;;;;;;31.51;61.01;153975.53;5072706;28;20536;-58
2022/10/31 10:23:47;;;;;;;10.40;9.40;;;;;;;31.29;63.48;153920.38;5071978;28;20195;-58
2022/10/31 10:26:18;;;;;;;10.43;8.65;;;;;;;32.33;58.13;154183.47;5064978;28;20181;-58
2022/10/31 10:28:48;;;;;;;9.95;9.35;;;;;;;33.37;54.73;154446.69;5067193;28;20242;-57
2022/10/31 10:31:21;;;;;;;9.80;8.52;;;;;;;35.04;48.78;154870.75;5065817;28;20234;-58
2022/10/31 10:34:00;;;;;;;9.23;8.20;;;;;;;33.80;51.29;154555.91;5071801;28;20192;-58
2022/10/31 10:36:31;;;;;;;10.15;8.50;;;;;;;34.22;51.26;154663.84;5067506;28;20202;-58
2022/10/31 10:39:03;;;;;;;12.57;8.93;;;;;;;35.50;47.01;154987.75;5071412;28;20591;-56
2022/10/31 10:41:33;;;;;;;12.32;8.77;;;;;;;34.64;48.00;154770.47;5069713;28;20199;-58
2022/10/31 10:44:00;;;;;;;9.23;8.63;;;;;;;33.70;50.53;154531.47;5064378;28;20184;-58
2022/10/31 10:49:32;;;;;;;12.00;9.55;;;;;;;28.40;75.48;153187.22;5071669;28;20701;-56
2022/10/31 10:52:04;;;;;;;12.68;9.05;;;;;;;27.54;84.00;152969.56;5072513;28;20194;-57
2022/10/31 10:54:43;;;;;;;14.57;9.35;;;;;;;28.01;84.67;153087.31;5072189;28;20270;-57
2022/10/31 10:57:28;;;;;;;17.15;9.70;;;;;;;27.11;86.82;152859.53;5071804;28;20189;-60
2022/10/31 10:59:55;;;;;;;11.10;9.27;;;;;;;26.74;90.71;152767.38;5071713;28;20204;-58
2022/10/31 11:02:26;;;;;;;13.98;8.40;;;;;;;28.94;77.26;153323.03;5071802;28;20650;-57
2022/10/31 11:04:55;;;;;;;9.10;8.30;;;;;;;30.03;69.08;153598.53;5071621;28;20290;-57
2022/10/31 11:07:23;;;;;;;9.25;8.32;;;;;;;30.10;71.11;153617.72;5071877;28;20657;-58
2022/10/31 11:09:50;;;;;;;13.27;9.48;;;;;;;28.78;77.90;153282.00;5071755;28;20188;-58
2022/10/31 11:12:23;;;;;;;9.73;8.80;;;;;;;26.44;91.85;152690.66;5071340;28;20193;-57
2022/10/31 11:14:54;;;;;;;10.30;9.23;;;;;;;24.88;100.00;152295.66;5071480;28;20196;-57
2022/10/31 11:17:28;;;;;;;11.13;9.68;;;;;;;24.25;100.00;152136.00;5071309;28;20288;-57
2022/10/31 11:20:28;;;;;;;12.05;9.10;;;;;;;24.14;100.00;152110.38;5071795;28;20670;-57